Impacts METAR Board
IDs:

KCLE - Cleveland/Hopkins In, OH, US

Updated at: 2200 UTC 19 Jul 2018
Potential Impact None Slight Moderate High
Time 19/10Z 19/11Z 19/12Z 19/13Z 19/14Z 19/15Z 19/16Z 19/17Z 19/18Z 19/19Z 19/20Z 19/21Z 19/22Z
Temp60 60 65 71 74 77 78 79 82 82 84 83 82
Dewpt53 53 57 57 57 52 52 53 55 54 56 62 62
Altim30.11 30.12 30.12 30.12 30.12 30.12 30.11 30.10 30.08 30.06 30.04 30.03 30.02
VIS10 10 10 10 10 10 10 10 10 10 10 10 10
CIG-- -- -- -- 250 250 250 250 250 250 250 250 --
CoverFEWSCTSCTSCTBKNBKNBKNBKNBKNBKNBKNBKNSCT
FltCatVFRVFRVFRVFRVFRVFRVFRVFRVFRVFRVFRVFRVFR
WX--------------------------
WDir1601601601301701901500017003010
WSpd4 5 4 8 6 7 6 0 3 4 3 11 9
WGst-- -- -- -- -- -- -- -- -- -- -- -- --
Raw hourly METARs
KCLE 190951Z 16004KT 10SM FEW250 16/12 A3011 RMK AO2 SLP190 T01560117 $
KCLE 191051Z 16005KT 10SM SCT250 16/12 A3012 RMK AO2 SLP195 T01560117 $
KCLE 191151Z 16004KT 10SM SCT250 18/14 A3012 RMK AO2 SLP196 T01830139 10183 20144 51008 $
KCLE 191251Z 13008KT 10SM SCT250 22/14 A3012 RMK AO2 SLP195 T02170139 $
KCLE 191351Z 17006KT 10SM BKN250 23/14 A3012 RMK AO2 SLP196 T02330139 $
KCLE 191451Z 19007KT 10SM BKN250 25/11 A3012 RMK AO2 SLP195 T02500111 58001 $
KCLE 191551Z 15006KT 10SM BKN250 26/11 A3011 RMK AO2 SLP192 T02560111 $
KCLE 191651Z 00000KT 10SM BKN250 26/12 A3010 RMK AO2 SLP190 T02610117 $
KCLE 191751Z VRB03KT 10SM BKN250 28/13 A3008 RMK AO2 SLP181 T02780128 10278 20183 58014 $
KCLE 191851Z 17004KT 10SM BKN250 28/12 A3006 RMK AO2 SLP175 T02780122 $
KCLE 191951Z VRB03KT 10SM BKN250 29/13 A3004 RMK AO2 SLP168 T02890133 $
KCLE 192051Z 03011KT 10SM BKN250 28/17 A3003 RMK AO2 SLP166 T02830167 56015 $
KCLE 192151Z 01009KT 10SM SCT200 28/17 A3002 RMK AO2 SLP162 T02780167 $



Page loaded:  22:50 UTC  |   03:50 PM Pacific  |   04:50 PM Mountain  |   05:50 PM Central  |   06:50 PM Eastern

 

ADVISORIES

FORECASTS

FORECASTS

OBSERVATIONS

USER TOOLS

ABOUT US